createdAt,value
2017-11-10T00:00:14.639Z,994.99
2017-11-10T00:01:21.431Z,994.93
2017-11-10T00:02:28.305Z,994.97
2017-11-10T00:03:35.074Z,994.90
2017-11-10T00:04:41.962Z,994.90
2017-11-10T00:05:48.789Z,994.99
2017-11-10T00:06:55.767Z,994.99
2017-11-10T00:08:02.202Z,994.93
2017-11-10T00:09:09.058Z,994.94
2017-11-10T00:10:16.989Z,994.79
2017-11-10T00:11:22.827Z,994.73
2017-11-10T00:12:29.727Z,994.83
2017-11-10T00:13:36.950Z,994.72
2017-11-10T00:14:43.468Z,994.80
2017-11-10T00:15:50.428Z,994.69
2017-11-10T00:16:57.376Z,994.75
2017-11-10T00:18:04.318Z,994.71
2017-11-10T00:19:11.112Z,994.66
2017-11-10T00:20:17.968Z,994.69
2017-11-10T00:21:24.801Z,994.64
2017-11-10T00:22:31.550Z,994.63
2017-11-10T00:23:38.430Z,994.63
2017-11-10T00:24:45.478Z,994.52
2017-11-10T00:25:52.386Z,994.54
2017-11-10T00:26:59.421Z,994.55
2017-11-10T00:28:06.413Z,994.58
2017-11-10T00:29:13.341Z,994.56
2017-11-10T00:30:20.379Z,994.58
2017-11-10T00:31:27.374Z,994.61
2017-11-10T00:32:35.279Z,994.66
2017-11-10T00:33:41.399Z,994.64
2017-11-10T00:34:48.198Z,994.63
2017-11-10T00:35:54.983Z,994.59
2017-11-10T00:37:02.097Z,994.66
2017-11-10T00:38:09.017Z,994.59
2017-11-10T00:39:15.809Z,994.64
2017-11-10T00:40:22.778Z,994.64
2017-11-10T00:41:29.506Z,994.59
2017-11-10T00:42:36.499Z,994.51
2017-11-10T00:43:43.315Z,994.51
2017-11-10T00:44:50.237Z,994.35
2017-11-10T00:45:57.163Z,994.34
2017-11-10T00:47:04.037Z,994.31
2017-11-10T00:48:11.098Z,994.32
2017-11-10T00:49:18.368Z,994.36
2017-11-10T00:50:24.718Z,994.26
2017-11-10T00:51:31.690Z,994.36
2017-11-10T00:52:38.806Z,994.27
2017-11-10T00:53:45.654Z,994.35
2017-11-10T00:54:52.473Z,994.34
2017-11-10T00:55:59.393Z,994.30
2017-11-10T00:57:06.428Z,994.34
2017-11-10T00:58:13.291Z,994.20
2017-11-10T00:59:20.174Z,994.21
2017-11-10T01:00:27.143Z,994.11
2017-11-10T01:01:33.903Z,994.17
2017-11-10T01:02:41.130Z,994.15
2017-11-10T01:03:47.902Z,994.09
2017-11-10T01:04:54.827Z,994.04
2017-11-10T01:06:01.833Z,994.01
2017-11-10T01:07:08.798Z,994.03
2017-11-10T01:08:15.639Z,993.98
2017-11-10T01:09:22.587Z,994.07
2017-11-10T01:10:29.450Z,993.99
2017-11-10T01:11:36.359Z,993.99
2017-11-10T01:12:43.227Z,994.03
2017-11-10T01:13:50.291Z,994.06
2017-11-10T01:14:57.081Z,994.17
2017-11-10T01:16:03.870Z,994.27
2017-11-10T01:17:11.101Z,994.26
2017-11-10T01:18:18.032Z,994.31
2017-11-10T01:19:25.027Z,994.20
2017-11-10T01:20:31.780Z,994.23
2017-11-10T01:21:39.140Z,994.26
2017-11-10T01:22:46.088Z,994.33
2017-11-10T01:23:53.013Z,994.31
2017-11-10T01:24:59.860Z,994.28
2017-11-10T01:26:06.665Z,994.41
2017-11-10T01:27:13.659Z,994.40
2017-11-10T01:28:20.481Z,994.43
2017-11-10T01:29:27.230Z,994.38
2017-11-10T01:30:33.987Z,994.47
2017-11-10T01:31:40.954Z,994.48
2017-11-10T01:32:47.862Z,994.44
2017-11-10T01:33:54.759Z,994.51
2017-11-10T01:35:01.674Z,994.60
2017-11-10T01:36:08.595Z,994.57
2017-11-10T01:37:15.532Z,994.60
2017-11-10T01:38:22.615Z,994.49
2017-11-10T01:39:29.557Z,994.47
2017-11-10T01:40:36.266Z,994.45
2017-11-10T01:41:43.098Z,994.43
2017-11-10T01:42:49.895Z,994.38
2017-11-10T01:43:56.686Z,994.25
2017-11-10T01:45:03.511Z,994.16
2017-11-10T01:46:10.452Z,994.16
2017-11-10T01:47:17.345Z,994.27
2017-11-10T01:48:24.213Z,994.23
2017-11-10T01:49:31.127Z,994.17
2017-11-10T01:50:37.861Z,994.00
2017-11-10T01:51:44.664Z,993.99
2017-11-10T01:52:51.634Z,993.97
2017-11-10T01:53:58.498Z,994.01
2017-11-10T01:55:05.615Z,994.00
2017-11-10T01:56:12.606Z,993.97
2017-11-10T01:57:19.722Z,993.91
2017-11-10T01:58:26.775Z,993.88
2017-11-10T01:59:33.826Z,993.81
2017-11-10T02:00:40.693Z,993.79
2017-11-10T02:01:47.822Z,993.75
2017-11-10T02:02:54.838Z,993.72
2017-11-10T02:04:01.866Z,993.63
2017-11-10T02:05:08.845Z,993.62
2017-11-10T02:06:15.833Z,993.50
2017-11-10T02:07:22.586Z,993.51
2017-11-10T02:08:29.556Z,993.54
2017-11-10T02:09:36.383Z,993.59
2017-11-10T02:10:43.286Z,993.63
2017-11-10T02:11:50.118Z,993.63
2017-11-10T02:12:57.008Z,993.62
2017-11-10T02:14:04.042Z,993.63
2017-11-10T02:15:10.963Z,993.61
2017-11-10T02:16:17.840Z,993.69
2017-11-10T02:17:24.578Z,993.63
2017-11-10T02:18:31.446Z,993.55
2017-11-10T02:19:38.358Z,993.54
2017-11-10T02:20:45.779Z,993.45
2017-11-10T02:21:52.298Z,993.41
2017-11-10T02:22:59.354Z,993.34
2017-11-10T02:24:06.347Z,993.31
2017-11-10T02:25:13.238Z,993.26
2017-11-10T02:26:20.119Z,993.38
2017-11-10T02:27:27.331Z,993.34
2017-11-10T02:28:34.287Z,993.25
2017-11-10T02:29:41.225Z,993.35
2017-11-10T02:30:48.106Z,993.43
2017-11-10T02:31:55.082Z,993.47
2017-11-10T02:33:02.082Z,993.56
2017-11-10T02:34:09.226Z,993.62
2017-11-10T02:35:16.097Z,993.66
2017-11-10T02:36:23.141Z,993.73
2017-11-10T02:37:30.143Z,993.77
2017-11-10T02:38:37.293Z,993.71
2017-11-10T02:39:44.254Z,993.67
2017-11-10T02:40:51.224Z,993.72
2017-11-10T02:41:58.016Z,993.57
2017-11-10T02:43:04.982Z,993.61
2017-11-10T02:44:12.069Z,993.57
2017-11-10T02:45:18.972Z,993.54
2017-11-10T02:46:26.007Z,993.52
2017-11-10T02:47:32.894Z,993.55
2017-11-10T02:48:39.695Z,993.48
2017-11-10T02:49:46.649Z,993.48
2017-11-10T02:50:53.447Z,993.47
2017-11-10T02:52:00.306Z,993.36
2017-11-10T02:53:07.429Z,993.33
2017-11-10T02:54:14.365Z,993.23
2017-11-10T02:55:21.318Z,993.31
2017-11-10T02:56:28.353Z,993.17
2017-11-10T02:58:42.457Z,993.11
2017-11-10T02:59:49.421Z,993.05
2017-11-10T03:00:56.474Z,993.08
2017-11-10T03:02:03.382Z,993.04
2017-11-10T03:03:10.177Z,993.10
2017-11-10T03:04:17.025Z,993.10
2017-11-10T03:05:23.898Z,993.07
2017-11-10T03:06:30.614Z,993.15
2017-11-10T03:07:37.372Z,993.18
2017-11-10T03:08:44.146Z,993.14
2017-11-10T03:09:51.002Z,993.12
2017-11-10T03:10:57.892Z,993.04
2017-11-10T03:12:04.873Z,993.09
2017-11-10T03:13:11.878Z,993.03
2017-11-10T03:14:18.910Z,992.99
2017-11-10T03:15:25.889Z,993.02
2017-11-10T03:16:32.853Z,993.01
2017-11-10T03:17:39.753Z,992.91
2017-11-10T03:18:46.654Z,992.89
2017-11-10T03:19:53.530Z,992.89
2017-11-10T03:21:00.233Z,992.96
2017-11-10T03:22:07.069Z,992.99
2017-11-10T03:23:14.275Z,993.01
2017-11-10T03:24:21.098Z,992.92
2017-11-10T03:25:27.962Z,992.98
2017-11-10T03:26:34.945Z,993.06
2017-11-10T03:27:41.798Z,993.07
2017-11-10T03:28:49.005Z,993.11
2017-11-10T03:29:55.338Z,993.13
2017-11-10T03:31:02.126Z,993.18
2017-11-10T03:32:08.974Z,993.16
2017-11-10T03:33:15.725Z,993.11
2017-11-10T03:34:22.534Z,993.12
2017-11-10T03:35:29.275Z,993.08
2017-11-10T03:36:36.166Z,993.08
2017-11-10T03:37:42.915Z,993.00
2017-11-10T03:38:49.677Z,992.98
2017-11-10T03:39:56.548Z,992.90
2017-11-10T03:41:03.409Z,992.85
2017-11-10T03:42:10.181Z,992.80
2017-11-10T03:43:17.077Z,992.81
2017-11-10T03:44:23.854Z,992.75
2017-11-10T03:45:30.731Z,992.80
2017-11-10T03:46:37.769Z,992.78
2017-11-10T03:47:44.545Z,992.68
2017-11-10T03:48:51.382Z,992.54
2017-11-10T03:49:58.353Z,992.51
2017-11-10T03:51:05.161Z,992.46
2017-11-10T03:52:12.028Z,992.49
2017-11-10T03:53:18.901Z,992.38
2017-11-10T03:54:26.149Z,992.40
2017-11-10T03:55:32.989Z,992.37
2017-11-10T03:56:39.971Z,992.37
2017-11-10T03:57:46.769Z,992.27
2017-11-10T03:58:53.745Z,992.30
2017-11-10T04:00:00.586Z,992.26
2017-11-10T04:01:07.687Z,992.32
2017-11-10T04:02:14.683Z,992.30
2017-11-10T04:03:21.345Z,992.28
2017-11-10T04:04:28.110Z,992.36
2017-11-10T04:05:34.966Z,992.26
2017-11-10T04:06:41.809Z,992.28
2017-11-10T04:07:48.718Z,992.29
2017-11-10T04:08:55.702Z,992.29
2017-11-10T04:10:02.494Z,992.28
2017-11-10T04:11:09.370Z,992.14
2017-11-10T04:12:16.157Z,992.13
2017-11-10T04:13:22.860Z,992.21
2017-11-10T04:14:29.685Z,992.24
2017-11-10T04:15:36.576Z,992.29
2017-11-10T04:16:43.625Z,992.26
2017-11-10T04:17:50.490Z,992.28
2017-11-10T04:18:57.196Z,992.38
2017-11-10T04:20:04.017Z,992.40
2017-11-10T04:21:10.766Z,992.38
2017-11-10T04:22:17.523Z,992.43
2017-11-10T04:23:24.301Z,992.43
2017-11-10T04:24:31.125Z,992.47
2017-11-10T04:25:37.973Z,992.42
2017-11-10T04:26:44.769Z,992.32
2017-11-10T04:27:51.525Z,992.41
2017-11-10T04:28:58.369Z,992.30
2017-11-10T04:30:05.185Z,992.31
2017-11-10T04:31:11.958Z,992.27
2017-11-10T04:32:18.681Z,992.36
2017-11-10T04:33:25.478Z,992.34
2017-11-10T04:34:32.364Z,992.30
2017-11-10T04:35:39.113Z,992.34
2017-11-10T04:36:46.131Z,992.28
2017-11-10T04:37:53.089Z,992.32
2017-11-10T04:38:59.891Z,992.28
2017-11-10T04:40:06.861Z,992.35
2017-11-10T04:41:13.814Z,992.23
2017-11-10T04:42:20.723Z,992.27
2017-11-10T04:43:27.545Z,992.30
2017-11-10T04:44:34.385Z,992.19
2017-11-10T04:45:41.072Z,992.29
2017-11-10T04:46:48.298Z,992.33
2017-11-10T04:47:55.171Z,992.34
2017-11-10T04:49:01.985Z,992.25
2017-11-10T04:50:08.827Z,992.32
2017-11-10T04:51:15.661Z,992.32
2017-11-10T04:52:22.433Z,992.24
2017-11-10T04:53:29.178Z,992.14
2017-11-10T04:54:36.067Z,992.18
2017-11-10T04:55:42.898Z,992.17
2017-11-10T04:56:49.715Z,992.14
2017-11-10T04:57:56.562Z,992.17
2017-11-10T04:59:03.342Z,992.25
2017-11-10T05:00:10.269Z,992.18
2017-11-10T05:01:16.953Z,992.26
2017-11-10T05:02:23.878Z,992.22
2017-11-10T05:03:30.717Z,992.24
2017-11-10T05:04:37.421Z,992.25
2017-11-10T05:05:44.293Z,992.21
2017-11-10T05:06:51.120Z,992.19
2017-11-10T05:07:57.962Z,992.24
2017-11-10T05:09:04.735Z,992.18
2017-11-10T05:10:11.631Z,992.05
2017-11-10T05:11:18.713Z,992.03
2017-11-10T05:12:25.348Z,992.10
2017-11-10T05:13:32.470Z,992.01
2017-11-10T05:14:39.548Z,992.16
2017-11-10T05:15:46.537Z,992.08
2017-11-10T05:16:53.443Z,992.15
2017-11-10T05:18:00.297Z,992.06
2017-11-10T05:19:07.088Z,992.00
2017-11-10T05:20:13.910Z,992.01
2017-11-10T05:21:20.850Z,992.02
2017-11-10T05:22:27.650Z,991.92
2017-11-10T05:23:34.537Z,991.98
2017-11-10T05:24:41.560Z,991.92
2017-11-10T05:25:48.549Z,991.92
2017-11-10T05:26:55.625Z,991.84
2017-11-10T05:28:02.502Z,991.84
2017-11-10T05:29:09.362Z,991.79
2017-11-10T05:30:16.297Z,991.73
2017-11-10T05:31:23.285Z,991.70
2017-11-10T05:32:30.209Z,991.67
2017-11-10T05:33:37.291Z,991.59
2017-11-10T05:34:44.417Z,991.55
2017-11-10T05:35:51.366Z,991.58
2017-11-10T05:36:58.337Z,991.60
2017-11-10T05:38:05.039Z,991.63
2017-11-10T05:39:11.849Z,991.68
2017-11-10T05:40:18.736Z,991.66
2017-11-10T05:41:25.794Z,991.65
2017-11-10T05:42:32.757Z,991.73
2017-11-10T05:43:39.689Z,991.73
2017-11-10T05:44:46.650Z,991.73
2017-11-10T05:45:53.306Z,991.75
2017-11-10T05:47:00.290Z,991.73
2017-11-10T05:48:07.074Z,991.63
2017-11-10T05:49:14.221Z,991.73
2017-11-10T05:50:21.060Z,991.71
2017-11-10T05:51:28.047Z,991.67
2017-11-10T05:52:35.365Z,991.63
2017-11-10T05:53:42.078Z,991.57
2017-11-10T05:54:48.938Z,991.62
2017-11-10T05:55:55.998Z,991.63
2017-11-10T05:57:02.822Z,991.65
2017-11-10T05:58:09.913Z,991.53
2017-11-10T05:59:16.763Z,991.58
2017-11-10T06:00:23.697Z,991.58
2017-11-10T06:01:30.642Z,991.71
2017-11-10T06:02:37.925Z,991.68
2017-11-10T06:03:44.891Z,991.81
2017-11-10T06:04:51.799Z,991.70
2017-11-10T06:05:58.705Z,991.58
2017-11-10T06:07:05.508Z,991.61
2017-11-10T06:08:12.495Z,991.58
2017-11-10T06:09:19.211Z,991.59
2017-11-10T06:10:25.969Z,991.53
2017-11-10T06:11:32.971Z,991.49
2017-11-10T06:12:39.929Z,991.45
2017-11-10T06:13:46.620Z,991.52
2017-11-10T06:14:53.409Z,991.45
2017-11-10T06:16:00.154Z,991.49
2017-11-10T06:17:07.344Z,991.46
2017-11-10T06:18:14.275Z,991.48
2017-11-10T06:19:21.090Z,991.43
2017-11-10T06:20:27.849Z,991.41
2017-11-10T06:21:34.688Z,991.43
2017-11-10T06:22:41.737Z,991.42
2017-11-10T06:23:48.879Z,991.41
2017-11-10T06:24:55.671Z,991.37
2017-11-10T06:26:02.650Z,991.36
2017-11-10T06:27:09.661Z,991.22
2017-11-10T06:28:16.439Z,991.27
2017-11-10T06:29:23.337Z,991.26
2017-11-10T06:30:30.080Z,991.29
2017-11-10T06:31:36.876Z,991.28
2017-11-10T06:32:43.703Z,991.24
2017-11-10T06:33:50.525Z,991.33
2017-11-10T06:34:57.301Z,991.24
2017-11-10T06:36:04.305Z,991.18
2017-11-10T06:37:11.168Z,991.22
2017-11-10T06:38:17.985Z,991.26
2017-11-10T06:39:24.672Z,991.23
2017-11-10T06:40:31.598Z,991.15
2017-11-10T06:41:38.524Z,991.10
2017-11-10T06:42:45.421Z,991.14
2017-11-10T06:43:52.178Z,991.10
2017-11-10T06:44:58.973Z,991.09
2017-11-10T06:46:05.733Z,991.08
2017-11-10T06:47:12.613Z,991.03
2017-11-10T06:48:19.457Z,991.03
2017-11-10T06:49:26.401Z,991.00
2017-11-10T06:50:33.185Z,991.06
2017-11-10T06:51:40.084Z,990.95
2017-11-10T06:52:47.082Z,990.89
2017-11-10T06:53:54.047Z,990.90
2017-11-10T06:55:00.758Z,990.96
2017-11-10T06:56:07.621Z,990.90
2017-11-10T06:57:14.555Z,990.99
2017-11-10T06:58:21.516Z,990.92
2017-11-10T06:59:28.337Z,990.95
2017-11-10T07:00:35.072Z,990.90
2017-11-10T07:01:42.213Z,990.88
2017-11-10T07:02:49.181Z,990.89
2017-11-10T07:03:55.982Z,990.89
2017-11-10T07:05:02.848Z,990.88
2017-11-10T07:06:09.770Z,990.82
2017-11-10T07:07:16.850Z,990.91
2017-11-10T07:08:23.715Z,990.80
2017-11-10T07:09:30.550Z,990.90
2017-11-10T07:10:37.367Z,990.80
2017-11-10T07:11:44.410Z,990.82
2017-11-10T07:12:51.437Z,990.85
2017-11-10T07:13:58.526Z,990.75
2017-11-10T07:15:05.310Z,990.71
2017-11-10T07:16:12.182Z,990.69
2017-11-10T07:17:18.925Z,990.65
2017-11-10T07:18:25.818Z,990.63
2017-11-10T07:19:32.588Z,990.56
2017-11-10T07:20:39.589Z,990.64
2017-11-10T07:21:46.483Z,990.61
2017-11-10T07:22:53.053Z,990.67
2017-11-10T07:23:59.862Z,990.59
2017-11-10T07:25:06.701Z,990.55
2017-11-10T07:26:13.473Z,990.52
2017-11-10T07:27:20.278Z,990.58
2017-11-10T07:28:27.133Z,990.58
2017-11-10T07:29:34.029Z,990.70
2017-11-10T07:30:41.048Z,990.63
2017-11-10T07:31:48.061Z,990.64
2017-11-10T07:32:55.041Z,990.68
2017-11-10T07:34:01.803Z,990.65
2017-11-10T07:35:08.944Z,990.60
2017-11-10T07:36:15.674Z,990.64
2017-11-10T07:37:22.498Z,990.54
2017-11-10T07:38:29.313Z,990.55
2017-11-10T07:39:36.294Z,990.57
2017-11-10T07:40:43.103Z,990.62
2017-11-10T07:41:49.858Z,990.54
2017-11-10T07:42:56.620Z,990.54
2017-11-10T07:44:03.571Z,990.50
2017-11-10T07:45:10.586Z,990.41
2017-11-10T07:46:17.422Z,990.59
2017-11-10T07:47:24.399Z,990.52
2017-11-10T07:48:31.494Z,990.50
2017-11-10T07:49:38.518Z,990.51
2017-11-10T07:50:45.563Z,990.54
2017-11-10T07:51:52.857Z,990.51
2017-11-10T07:52:59.379Z,990.46
2017-11-10T07:54:05.940Z,990.51
2017-11-10T07:55:12.899Z,990.46
2017-11-10T07:56:19.905Z,990.45
2017-11-10T07:57:26.907Z,990.54
2017-11-10T07:58:33.919Z,990.45
2017-11-10T07:59:40.475Z,990.54
2017-11-10T08:00:47.409Z,990.43
2017-11-10T08:01:54.143Z,990.45
2017-11-10T08:03:01.110Z,990.50
2017-11-10T08:04:07.951Z,990.45
2017-11-10T08:05:14.706Z,990.49
2017-11-10T08:06:21.476Z,990.48
2017-11-10T08:07:28.262Z,990.47
2017-11-10T08:08:35.161Z,990.48
2017-11-10T08:09:41.974Z,990.45
2017-11-10T08:10:48.913Z,990.42
2017-11-10T08:11:55.803Z,990.43
2017-11-10T08:13:03.147Z,990.39
2017-11-10T08:14:09.506Z,990.40
2017-11-10T08:15:16.325Z,990.49
2017-11-10T08:16:23.295Z,990.39
2017-11-10T08:17:30.173Z,990.39
2017-11-10T08:18:37.189Z,990.44
2017-11-10T08:19:44.024Z,990.37
2017-11-10T08:20:50.796Z,990.45
2017-11-10T08:21:57.913Z,990.44
2017-11-10T08:23:04.787Z,990.43
2017-11-10T08:24:11.778Z,990.40
2017-11-10T08:25:18.640Z,990.41
2017-11-10T08:26:25.741Z,990.42
2017-11-10T08:27:32.749Z,990.39
2017-11-10T08:28:39.706Z,990.31
2017-11-10T08:29:46.688Z,990.25
2017-11-10T08:30:53.702Z,990.29
2017-11-10T08:32:00.489Z,990.25
2017-11-10T08:33:07.443Z,990.27
2017-11-10T08:34:14.451Z,990.30
2017-11-10T08:35:21.205Z,990.24
2017-11-10T08:36:28.222Z,990.20
2017-11-10T08:37:35.251Z,990.31
2017-11-10T08:38:42.263Z,990.37
2017-11-10T08:39:49.194Z,990.43
2017-11-10T08:40:56.154Z,990.32
2017-11-10T08:42:02.918Z,990.42
2017-11-10T08:43:09.795Z,990.48
2017-11-10T08:44:16.620Z,990.40
2017-11-10T08:45:23.402Z,990.45
2017-11-10T08:46:30.295Z,990.46
2017-11-10T08:47:37.157Z,990.45
2017-11-10T08:48:43.971Z,990.47
2017-11-10T08:49:51.066Z,990.41
2017-11-10T08:50:58.084Z,990.47
2017-11-10T08:52:04.924Z,990.40
2017-11-10T08:53:11.918Z,990.42
2017-11-10T08:54:18.796Z,990.43
2017-11-10T08:55:25.513Z,990.36
2017-11-10T08:56:32.402Z,990.36
2017-11-10T08:57:39.224Z,990.28
2017-11-10T08:58:45.969Z,990.35
2017-11-10T08:59:52.770Z,990.34
2017-11-10T09:00:59.790Z,990.30
2017-11-10T09:02:06.701Z,990.34
2017-11-10T09:03:13.502Z,990.17
2017-11-10T09:04:20.407Z,990.26
2017-11-10T09:05:27.547Z,990.28
2017-11-10T09:06:34.407Z,990.22
2017-11-10T09:07:41.283Z,990.24
2017-11-10T09:08:48.012Z,990.17
2017-11-10T09:09:54.937Z,990.12
2017-11-10T09:11:01.787Z,990.14
2017-11-10T09:12:08.617Z,990.16
2017-11-10T09:13:15.538Z,990.05
2017-11-10T09:14:22.381Z,990.14
2017-11-10T09:15:29.411Z,990.14
2017-11-10T09:16:36.121Z,990.12
2017-11-10T09:17:42.933Z,990.09
2017-11-10T09:18:49.742Z,990.11
2017-11-10T09:19:56.720Z,990.06
2017-11-10T09:21:03.927Z,990.07
2017-11-10T09:22:10.884Z,990.03
2017-11-10T09:23:17.984Z,989.97
2017-11-10T09:24:24.837Z,990.02
2017-11-10T09:25:31.600Z,989.98
2017-11-10T09:26:38.678Z,990.03
2017-11-10T09:27:45.690Z,989.95
2017-11-10T09:28:52.904Z,989.94
2017-11-10T09:30:00.070Z,990.04
2017-11-10T09:31:07.049Z,989.94
2017-11-10T09:32:13.916Z,989.99
2017-11-10T09:33:20.905Z,990.00
2017-11-10T09:34:27.835Z,990.03
2017-11-10T09:35:34.800Z,990.06
2017-11-10T09:36:41.733Z,989.99
2017-11-10T09:37:48.538Z,990.03
2017-11-10T09:38:55.933Z,989.98
2017-11-10T09:40:02.812Z,990.00
2017-11-10T09:41:09.870Z,989.94
2017-11-10T09:42:16.822Z,989.97
2017-11-10T09:43:23.785Z,990.00
2017-11-10T09:44:30.849Z,989.97
2017-11-10T09:45:37.954Z,989.98
2017-11-10T09:46:44.954Z,990.07
2017-11-10T09:47:51.858Z,989.97
2017-11-10T09:48:58.716Z,989.97
2017-11-10T09:50:05.638Z,989.91
2017-11-10T09:51:12.634Z,989.89
2017-11-10T09:52:19.661Z,989.88
2017-11-10T09:53:26.690Z,989.86
2017-11-10T09:54:33.506Z,989.91
2017-11-10T09:55:40.408Z,989.84
2017-11-10T09:56:47.434Z,989.86
2017-11-10T09:57:54.375Z,989.80
2017-11-10T09:59:01.467Z,989.81
2017-11-10T10:00:08.390Z,989.78
2017-11-10T10:01:15.586Z,989.73
2017-11-10T10:02:22.139Z,989.77
2017-11-10T10:03:29.086Z,989.75
2017-11-10T10:04:35.994Z,989.70
2017-11-10T10:05:43.111Z,989.60
2017-11-10T10:06:50.125Z,989.58
2017-11-10T10:07:56.989Z,989.57
2017-11-10T10:09:03.982Z,989.64
2017-11-10T10:10:11.042Z,989.54
2017-11-10T10:11:18.074Z,989.42
2017-11-10T10:12:25.123Z,989.42
2017-11-10T10:13:31.933Z,989.38
2017-11-10T10:14:39.027Z,989.35
2017-11-10T10:15:45.981Z,989.19
2017-11-10T10:16:53.049Z,989.19
2017-11-10T10:18:00.141Z,989.22
2017-11-10T10:19:07.046Z,989.16
2017-11-10T10:20:13.878Z,989.04
2017-11-10T10:21:20.813Z,989.12
2017-11-10T10:22:27.804Z,989.08
2017-11-10T10:23:34.651Z,989.02
2017-11-10T10:24:41.726Z,989.10
2017-11-10T10:25:48.598Z,989.07
2017-11-10T10:26:55.640Z,989.04
2017-11-10T10:28:02.583Z,989.13
2017-11-10T10:29:09.362Z,989.07
2017-11-10T10:30:16.354Z,989.14
2017-11-10T10:31:23.187Z,989.11
2017-11-10T10:32:30.098Z,989.20
2017-11-10T10:33:36.990Z,989.22
2017-11-10T10:34:44.045Z,989.24
2017-11-10T10:35:50.986Z,989.24
2017-11-10T10:36:57.967Z,989.28
2017-11-10T10:38:04.969Z,989.19
2017-11-10T10:39:11.986Z,989.16
2017-11-10T10:40:18.950Z,989.14
2017-11-10T10:41:25.710Z,989.15
2017-11-10T10:42:32.700Z,989.13
2017-11-10T10:43:39.517Z,989.09
2017-11-10T10:44:46.517Z,989.14
2017-11-10T10:45:53.334Z,989.06
2017-11-10T10:47:00.218Z,989.11
2017-11-10T10:48:07.019Z,989.09
2017-11-10T10:49:13.870Z,989.02
2017-11-10T10:50:20.769Z,988.96
2017-11-10T10:51:27.705Z,988.91
2017-11-10T10:53:41.661Z,988.89
2017-11-10T10:54:48.500Z,988.87
2017-11-10T10:55:55.234Z,988.83
2017-11-10T10:57:02.109Z,988.80
2017-11-10T10:58:08.934Z,988.77
2017-11-10T10:59:15.730Z,988.77
2017-11-10T11:00:22.722Z,988.86
2017-11-10T11:01:29.593Z,988.84
2017-11-10T11:02:36.562Z,988.80
2017-11-10T11:03:43.362Z,988.72
2017-11-10T11:04:50.098Z,988.74
2017-11-10T11:05:57.102Z,988.78
2017-11-10T11:07:04.053Z,988.70
2017-11-10T11:08:10.839Z,988.75
2017-11-10T11:09:17.847Z,988.73
2017-11-10T11:10:24.805Z,988.60
2017-11-10T11:11:32.026Z,988.57
2017-11-10T11:12:38.916Z,988.62
2017-11-10T11:13:45.680Z,988.52
2017-11-10T11:14:52.477Z,988.51
2017-11-10T11:15:59.411Z,988.47
2017-11-10T11:17:06.195Z,988.44
2017-11-10T11:18:12.977Z,988.35
2017-11-10T11:19:19.886Z,988.38
2017-11-10T11:20:26.610Z,988.45
2017-11-10T11:21:33.346Z,988.52
2017-11-10T11:22:40.420Z,988.49
2017-11-10T11:23:47.281Z,988.35
2017-11-10T11:24:54.319Z,988.29
2017-11-10T11:26:01.179Z,988.39
2017-11-10T11:27:08.192Z,988.29
2017-11-10T11:28:15.258Z,988.27
2017-11-10T11:29:22.133Z,988.26
2017-11-10T11:30:28.926Z,988.28
2017-11-10T11:31:35.738Z,988.18
2017-11-10T11:32:42.735Z,988.20
2017-11-10T11:33:49.698Z,988.16
2017-11-10T11:34:56.480Z,988.12
2017-11-10T11:36:03.274Z,988.12
2017-11-10T11:37:10.116Z,988.11
2017-11-10T11:38:17.445Z,988.14
2017-11-10T11:39:24.083Z,988.10
2017-11-10T11:40:31.046Z,988.06
2017-11-10T11:41:38.034Z,988.05
2017-11-10T11:42:44.818Z,987.98
2017-11-10T11:43:51.599Z,988.03
2017-11-10T11:44:58.657Z,988.00
2017-11-10T11:46:05.691Z,987.94
2017-11-10T11:47:13.559Z,987.96
2017-11-10T11:48:19.566Z,987.94
2017-11-10T11:49:26.329Z,987.88
2017-11-10T11:50:33.238Z,987.88
2017-11-10T11:51:40.086Z,987.86
2017-11-10T11:52:47.192Z,987.90
2017-11-10T11:53:54.265Z,987.89
2017-11-10T11:55:01.100Z,987.92
2017-11-10T11:56:08.015Z,987.88
2017-11-10T11:57:14.954Z,987.87
2017-11-10T11:58:21.889Z,987.79
2017-11-10T11:59:28.947Z,987.75
2017-11-10T12:00:35.510Z,987.81
2017-11-10T12:01:42.507Z,987.72
2017-11-10T12:02:49.557Z,987.72
2017-11-10T12:03:56.561Z,987.67
2017-11-10T12:05:03.357Z,987.69
2017-11-10T12:06:10.426Z,987.67
2017-11-10T12:07:17.164Z,987.63
2017-11-10T12:08:23.898Z,987.69
2017-11-10T12:09:30.838Z,987.63
2017-11-10T12:10:37.891Z,987.60
2017-11-10T12:11:44.777Z,987.57
2017-11-10T12:12:51.870Z,987.51
2017-11-10T12:13:58.701Z,987.60
2017-11-10T12:15:05.649Z,987.58
2017-11-10T12:16:12.511Z,987.57
2017-11-10T12:17:19.513Z,987.56
2017-11-10T12:18:26.410Z,987.50
2017-11-10T12:19:33.385Z,987.50
2017-11-10T12:20:40.307Z,987.59
2017-11-10T12:21:47.501Z,987.46
2017-11-10T12:22:54.654Z,987.44
2017-11-10T12:24:01.666Z,987.45
2017-11-10T12:25:08.674Z,987.41
2017-11-10T12:26:15.751Z,987.36
2017-11-10T12:27:22.567Z,987.41
2017-11-10T12:28:29.345Z,987.38
2017-11-10T12:29:36.239Z,987.42
2017-11-10T12:30:43.206Z,987.41
2017-11-10T12:31:50.146Z,987.45
2017-11-10T12:32:56.919Z,987.41
2017-11-10T12:34:03.763Z,987.39
2017-11-10T12:35:10.762Z,987.28
2017-11-10T12:36:17.726Z,987.34
2017-11-10T12:37:24.598Z,987.34
2017-11-10T12:38:31.681Z,987.35
2017-11-10T12:39:39.651Z,987.35
2017-11-10T12:40:45.519Z,987.39
2017-11-10T12:41:52.602Z,987.31
2017-11-10T12:42:59.383Z,987.33
2017-11-10T12:44:06.362Z,987.32
2017-11-10T12:45:13.401Z,987.26
2017-11-10T12:46:20.427Z,987.25
2017-11-10T12:47:27.490Z,987.28
2017-11-10T12:48:34.346Z,987.30
2017-11-10T12:49:41.447Z,987.36
2017-11-10T12:50:48.495Z,987.35
2017-11-10T12:51:55.317Z,987.38
2017-11-10T12:53:02.221Z,987.33
2017-11-10T12:54:09.118Z,987.39
2017-11-10T12:55:15.942Z,987.32
2017-11-10T12:56:22.930Z,987.27
2017-11-10T12:57:29.931Z,987.33
2017-11-10T12:58:36.971Z,987.36
2017-11-10T12:59:43.906Z,987.28
2017-11-10T13:00:50.850Z,987.29
2017-11-10T13:01:57.725Z,987.30
2017-11-10T13:03:04.621Z,987.26
2017-11-10T13:04:11.375Z,987.30
2017-11-10T13:05:18.158Z,987.32
2017-11-10T13:06:25.006Z,987.23
2017-11-10T13:07:31.819Z,987.20
2017-11-10T13:08:38.579Z,987.29
2017-11-10T13:09:45.404Z,987.33
2017-11-10T13:10:52.304Z,987.34
2017-11-10T13:11:59.265Z,987.35
2017-11-10T13:13:06.212Z,987.30
2017-11-10T13:14:12.990Z,987.36
2017-11-10T13:15:20.085Z,987.29
2017-11-10T13:16:27.051Z,987.33
2017-11-10T13:17:34.018Z,987.17
2017-11-10T13:18:40.854Z,987.26
2017-11-10T13:19:47.884Z,987.23
2017-11-10T13:20:54.962Z,987.27
2017-11-10T13:22:01.865Z,987.26
2017-11-10T13:23:08.654Z,987.22
2017-11-10T13:24:15.570Z,987.15
2017-11-10T13:25:22.573Z,987.12
2017-11-10T13:26:29.486Z,987.18
2017-11-10T13:27:36.235Z,987.26
2017-11-10T13:28:42.972Z,987.20
2017-11-10T13:29:49.735Z,987.09
2017-11-10T13:30:56.582Z,987.19
2017-11-10T13:32:03.417Z,987.14
2017-11-10T13:33:10.148Z,987.14
2017-11-10T13:34:16.947Z,987.05
2017-11-10T13:35:23.854Z,987.13
2017-11-10T13:36:30.782Z,987.18
2017-11-10T13:37:37.630Z,987.06
2017-11-10T13:38:44.458Z,987.07
2017-11-10T13:39:51.147Z,987.05
2017-11-10T13:40:57.873Z,987.09
2017-11-10T13:42:04.671Z,986.97
2017-11-10T13:43:11.562Z,987.06
2017-11-10T13:44:18.282Z,987.00
2017-11-10T13:45:25.201Z,986.96
2017-11-10T13:46:32.000Z,987.03
2017-11-10T13:47:38.766Z,986.96
2017-11-10T13:48:45.607Z,987.08
2017-11-10T13:49:52.338Z,987.03
2017-11-10T13:50:59.210Z,987.02
2017-11-10T13:52:06.023Z,987.16
2017-11-10T13:53:12.778Z,987.05
2017-11-10T13:54:19.442Z,986.99
2017-11-10T13:55:26.697Z,986.99
2017-11-10T13:56:33.566Z,987.01